Home > Products > Valid Products > TAF

000
FTUS43 KLMK 270800 AAA
TAFBWG
TAF AMD
KBWG 270810Z 2708/2806 30009KT 5SM -SN BR BKN008
     FM271000 32005KT P6SM OVC009
     FM271400 31008KT P6SM OVC015
     FM272000 30009KT P6SM BKN050=



000
FTUS43 KLMK 270800 AAB
TAFSDF
TAF AMD
KSDF 270808Z 2708/2812 35009KT 4SM -SN BR BKN015 OVC025
      TEMPO 2708/2709 1SM -SN BR BKN007
     FM271000 32009KT P6SM OVC035
     FM271900 30010KT P6SM BKN050
     FM280000 31004KT P6SM SCT250=



000
FTUS43 KLMK 270600 AAA
TAFSDF
TAF AMD
KSDF 270631Z 2707/2812 35008KT 5SM -SN BR OVC040
      TEMPO 2707/2709 3SM -SN BR BKN025
     FM270900 32009KT P6SM VCSH OVC040
     FM271100 32009KT P6SM OVC035
     FM271900 30010KT P6SM BKN050
     FM280000 31004KT P6SM SCT250=



000
FTUS43 KLMK 270500
TAFLEX
TAF
KLEX 270520Z 2706/2806 04005KT P6SM OVC060
     FM270900 33005KT P6SM OVC040
     FM271500 31010KT P6SM BKN050
     FM280000 29006KT P6SM SCT250=



000
FTUS43 KLMK 270500
TAFBWG
TAF
KBWG 270520Z 2706/2806 28004KT 6SM -SNRA BR BKN007 OVC010
     FM271000 32005KT P6SM OVC009
     FM271400 31008KT P6SM OVC015
     FM272000 30009KT P6SM BKN050=



000
FTUS43 KLMK 270500
TAFSDF
TAF
KSDF 270520Z 2706/2812 02008KT P6SM VCSH OVC060
     FM271100 32009KT P6SM OVC035
     FM271900 30010KT P6SM BKN050
     FM280000 31004KT P6SM SCT250=



000
FTUS43 KLMK 270400 CCA
TAFBWG
TAF COR
KBWG 270412Z 2704/2724 32005KT 5SM -SNRA OVC009
     FM270700 32005KT 6SM -SN OVC021
     FM271000 32006KT P6SM BKN025
     FM271300 31008KT P6SM SCT030=



000
FTUS43 KLMK 270400 AAB
TAFBWG
TAF AMD
KBWG 270409Z 2704/2724 32005KT 5SM -SN OVC009
     FM270700 32005KT 6SM -SN OVC021
     FM271000 32006KT P6SM BKN025
     FM271300 31008KT P6SM SCT030=



000
FTUS43 KLMK 270000 AAA
TAFBWG
TAF AMD
KBWG 270032Z 2701/2724 25006KT 6SM -RA OVC023
     FM270300 VRB03KT 6SM -SNRA OVC017
     FM270400 32005KT 3SM -SN OVC015
     FM270700 32005KT 6SM -SN OVC021
     FM271000 32006KT P6SM BKN025
     FM271300 31008KT P6SM SCT030=



000
FTUS43 KLMK 262300
TAFSDF
TAF
KSDF 262322Z 2700/2806 VRB03KT P6SM OVC130
     FM270400 33007KT P6SM VCSH OVC045
     FM271300 30010KT P6SM SCT035
     FM272300 28005KT P6SM SKC=



000
FTUS43 KLMK 262300
TAFLEX
TAF
KLEX 262322Z 2700/2724 VRB03KT P6SM OVC130
     FM270600 33006KT P6SM VCSH OVC045
     FM271300 30009KT P6SM SCT040=



000
FTUS43 KLMK 262300
TAFBWG
TAF
KBWG 262322Z 2700/2724 VRB03KT P6SM OVC050
     FM270100 VRB03KT P6SM -RA OVC040
     FM270300 VRB03KT 6SM -SNRA OVC035
     FM270400 32005KT 3SM -SN OVC015
     FM270700 32005KT 6SM -SN OVC021
     FM271000 32006KT P6SM BKN025
     FM271300 31008KT P6SM SCT030=



000
FTUS43 KLMK 261700
TAFBWG
TAF
KBWG 261720Z 2618/2718 VRB03KT P6SM SCT250
     FM270000 27004KT 6SM -RA BR OVC035
     FM270500 29005KT 4SM -SN BR OVC025
     FM271100 30007KT P6SM SCT020 BKN070=



000
FTUS43 KLMK 261700
TAFLEX
TAF
KLEX 261720Z 2618/2718 VRB03KT P6SM SCT250
     FM270300 35004KT P6SM VCSH BKN040
     FM271200 31008KT P6SM BKN250=



000
FTUS43 KLMK 261700
TAFSDF
TAF
KSDF 261720Z 2618/2724 22004KT P6SM SCT250
     FM270200 35005KT P6SM VCSH BKN040
     FM271000 31010KT P6SM SCT030 BKN250=



000
FTUS43 KLMK 261400 AAA
TAFLEX
TAF AMD
KLEX 261444Z 2615/2712 04004KT 5SM BR SKC
     FM261600 27004KT P6SM SCT250
     FM270300 35003KT P6SM VCSH BKN040
     FM271100 31007KT P6SM BKN250=



000
FTUS43 KLMK 261400 AAA
TAFBWG
TAF AMD
KBWG 261442Z 2615/2712 00000KT 5SM BR SKC
     FM261600 21004KT P6SM SCT250
     FM270000 27004KT 6SM -RA BR OVC035
     FM270400 29005KT 4SM -RASN BR OVC025
     FM271000 30007KT P6SM OVC035=



000
FTUS43 KLMK 261100
TAFSDF
TAF
KSDF 261120Z 2612/2718 34007KT P6SM SKC
     FM261500 22004KT P6SM SCT250
     FM270000 35004KT P6SM VCSH BKN040
     FM271100 32008KT P6SM SCT250=



000
FTUS43 KLMK 261100
TAFBWG
TAF
KBWG 261120Z 2612/2712 VRB03KT P6SM SKC
     FM261500 21004KT P6SM SCT250
     FM262200 19004KT 4SM -RA BR OVC035
     FM270400 29005KT 4SM -RASN BR OVC025
     FM271000 30007KT P6SM OVC035=



000
FTUS43 KLMK 261100
TAFLEX
TAF
KLEX 261120Z 2612/2712 04004KT P6SM BKN250
     FM261400 VRB04KT P6SM SKC
     FM261800 24004KT P6SM BKN250
     FM270000 35003KT P6SM VCSH BKN040
     FM271100 30004KT P6SM BKN250=



000
FTUS43 KLMK 260500
TAFBWG
TAF
KBWG 260520Z 2606/2706 VRB03KT P6SM SCT250
     FM261500 18005KT P6SM BKN150
     FM270000 22004KT P6SM VCSH OVC050=



000
FTUS43 KLMK 260500
TAFLEX
TAF
KLEX 260520Z 2606/2706 02005KT P6SM OVC200
     FM261400 VRB04KT P6SM SCT040
     FM270300 05004KT P6SM OVC050=



000
FTUS43 KLMK 260500
TAFSDF
TAF
KSDF 260520Z 2606/2712 01005KT P6SM BKN200
     FM261300 VRB04KT P6SM SCT040
     FM270200 31004KT P6SM VCSH OVC040=



000
FTUS43 KLMK 252300
TAFLEX
TAF
KLEX 252320Z 2600/2624 VRB03KT P6SM OVC250
     FM261300 VRB04KT P6SM SCT035=



000
FTUS43 KLMK 252300
TAFSDF
TAF
KSDF 252320Z 2600/2706 VRB03KT P6SM BKN250
     FM261300 VRB04KT P6SM FEW035
     FM270200 31004KT P6SM BKN050=



000
FTUS43 KLMK 252300
TAFBWG
TAF
KBWG 252320Z 2600/2624 00000KT P6SM OVC250
     FM261600 18005KT P6SM BKN150=



000
FTUS43 KLMK 251700
TAFBWG
TAF
KBWG 251723Z 2518/2618 28008KT P6SM FEW200
     FM252300 VRB03KT P6SM FEW200
     FM261300 19006KT P6SM SCT150=



000
FTUS43 KLMK 251700
TAFSDF
TAF
KSDF 251723Z 2518/2624 27008KT P6SM SCT025 SCT250
     FM252300 VRB03KT P6SM FEW250
     FM261300 VRB04KT P6SM BKN150=



000
FTUS43 KLMK 251700
TAFLEX
TAF
KLEX 251723Z 2518/2618 26010KT P6SM FEW040 SCT250
     FM252300 VRB04KT P6SM FEW250
     FM261300 VRB04KT P6SM FEW040 SCT150=



000
FTUS43 KLMK 251100
TAFBWG
TAF
KBWG 251122Z 2512/2612 23004KT P6SM SKC
     FM251500 27008KT P6SM FEW040
     FM260100 VRB03KT P6SM SKC=



000
FTUS43 KLMK 251100
TAFLEX
TAF
KLEX 251122Z 2512/2612 23007KT P6SM SCT030
     FM251500 26010KT P6SM SCT040
     FM252300 33003KT P6SM FEW250=



000
FTUS43 KLMK 251100
TAFSDF
TAF
KSDF 251122Z 2512/2618 27005KT P6SM SCT024
     FM251700 27010KT P6SM SCT040
     FM252300 33003KT P6SM FEW250=



000
FTUS43 KLMK 250500
TAFBWG
TAF
KBWG 250520Z 2506/2606 23004KT P6SM SCT060
     FM251500 27008KT P6SM FEW040
     FM260100 VRB03KT P6SM SKC=



000
FTUS43 KLMK 250500
TAFSDF
TAF
KSDF 250520Z 2506/2612 24005KT P6SM SCT050
     FM251500 27010KT P6SM SCT040
     FM252300 33003KT P6SM FEW250=



000
FTUS43 KLMK 250500
TAFLEX
TAF
KLEX 250520Z 2506/2606 23007KT P6SM SCT050
     FM251500 26010KT P6SM SCT040
     FM252300 33003KT P6SM FEW250=



000
FTUS43 KLMK 242300
TAFLEX
TAF
KLEX 242320Z 2500/2524 23007KT P6SM SCT050
     FM251400 26008KT P6SM SCT040=



000
FTUS43 KLMK 242300
TAFBWG
TAF
KBWG 242320Z 2500/2524 23004KT P6SM SCT060
     FM251300 29005KT P6SM FEW040=



000
FTUS43 KLMK 242300
TAFSDF
TAF
KSDF 242320Z 2500/2606 24008KT P6SM SCT050
     FM251300 27008KT P6SM SCT040
     FM252300 33003KT P6SM FEW250=



000
FTUS43 KLMK 242100 AAB
TAFLEX
TAF AMD
KLEX 242147Z 2422/2518 26011G20KT P6SM BKN035
     FM250000 24010KT P6SM SCT030=



000
FTUS43 KLMK 242100 AAB
TAFLEX
TAF AMD
KLEX 242147Z 2422/2518 26011G20KT P6SM BKN035
     FM250000 24010KT P6SM SCT030=



000
FTUS43 KLMK 242000 AAA
TAFBWG
TAF AMD
KBWG 242050Z 2421/2518 25018G24KT P6SM FEW040
     FM242200 25012G20KT P6SM FEW040
     FM250100 24007KT P6SM SKC=



000
FTUS43 KLMK 242000 AAA
TAFLEX
TAF AMD
KLEX 242050Z 2421/2518 25014G23KT P6SM BKN030
     FM250000 24010KT P6SM SCT030=



000
FTUS43 KLMK 242000 AAA
TAFSDF
TAF AMD
KSDF 242049Z 2421/2524 24014G24KT P6SM BKN040
     FM250100 24011KT P6SM SCT035=



000
FTUS43 KLMK 241700
TAFSDF
TAF
KSDF 241720Z 2418/2524 26019G29KT P6SM SCT015 BKN022
     FM242200 24014G20KT P6SM BKN025
     FM250100 24011KT P6SM SCT035=



000
FTUS43 KLMK 241700
TAFBWG
TAF
KBWG 241720Z 2418/2518 25018G29KT P6SM BKN025
     FM242200 25012G20KT P6SM SCT025
     FM250100 24007KT P6SM FEW030=



000
FTUS43 KLMK 241700
TAFLEX
TAF
KLEX 241720Z 2418/2518 24021G35KT P6SM SCT025 BKN040
     FM241900 23019G28KT P6SM BKN025
     FM250000 24011KT P6SM BKN025
     FM250800 24008KT P6SM SCT035=



000
FTUS43 KLMK 241500 AAB
TAFSDF
TAF AMD
KSDF 241558Z 2416/2518 25022G35KT P6SM BKN021
     FM241800 25018G27KT P6SM BKN025
     FM250100 24012KT P6SM BKN025
     FM250800 25009KT P6SM SCT035=



000
FTUS43 KLMK 241400 AAA
TAFBWG
TAF AMD
KBWG 241410Z 2414/2512 23021G32KT P6SM VCSH SCT025 BKN040
     FM241600 24020G29KT P6SM BKN015
     FM241900 24015G24KT P6SM BKN025
     FM250100 23007KT P6SM SCT030=



000
FTUS43 KLMK 241400 AAA
TAFLEX
TAF AMD
KLEX 241408Z 2414/2512 22025G36KT P6SM VCSH SCT025 BKN040
      TEMPO 2415/2417 3SM -SHRA BKN025
     FM241900 23019G30KT P6SM VCSH BKN015
     FM250000 24012KT P6SM BKN025
     FM250800 23008KT P6SM SCT035=



000
FTUS43 KLMK 241400 AAA
TAFSDF
TAF AMD
KSDF 241406Z 2414/2518 22022G35KT P6SM -SHRA SCT025 BKN035
      TEMPO 2414/2416 3SM -SHRA BKN025
     FM241600 23022G35KT P6SM BKN018
     FM241800 24018G27KT P6SM BKN025
     FM250100 24012KT P6SM BKN025
     FM250800 25009KT P6SM SCT035=



000
FTUS43 KLMK 241100
TAFBWG
TAF
KBWG 241120Z 2412/2512 20018G27KT P6SM VCSH SCT030 BKN040
     FM241300 22022G33KT P6SM -SHRA SCT015 BKN040
     FM241500 24020G27KT P6SM BKN015
     FM241900 24015G23KT P6SM BKN025
     FM250100 25006KT P6SM SCT030=



000
FTUS43 KLMK 241100
TAFLEX
TAF
KLEX 241120Z 2412/2512 20013G29KT P6SM VCSH SCT025 BKN040
     FM241500 21020G33KT P6SM -SHRA VCTS SCT015 BKN025CB
     FM241800 23020G29KT P6SM VCSH BKN015
     FM250000 24012KT P6SM BKN025
     FM250800 22007KT P6SM SCT035=



000
FTUS43 KLMK 241100
TAFSDF
TAF
KSDF 241120Z 2412/2518 20018G28KT P6SM VCSH SCT025 BKN050
     FM241300 21022G33KT P6SM -SHRA VCTS SCT015 BKN025CB
     FM241500 23020G30KT P6SM VCSH BKN015
     FM241800 24018G23KT P6SM BKN025
     FM250200 24012KT P6SM BKN025
     FM250800 24009KT P6SM SCT035=



    US Dept of Commerce
    National Oceanic and Atmospheric Administration
    National Weather Service
    1325 East West Highway
    Silver Spring, MD 20910
    Page Author: NWS Internet Services Team
Disclaimer
Information Quality
Credits
Glossary
Privacy Policy
Freedom of Information Act (FOIA)
About Us
Career Opportunities